Terminal Aerodrome Forecast
Issued by NWS Twin Cities, MN

Home | Current Version | Previous Version | Graphics & Text | Print | Product List | Glossary Off
Versions: 1 2 3 4 5 6 7 8 9 10 11 12 13 14 15 16 17 18

000
FTUS43 KMPX 100523
TAFSTC
TAF
KSTC 100523Z 1006/1106 36005KT P6SM SKC
     FM101400 03003KT P6SM BKN120
     FM101700 06004KT P6SM BKN080 OVC150
     FM102300 36003KT P6SM BKN050 OVC100
     FM110200 32003KT P6SM BKN050=

USA.gov is the U.S. government's official web portal to all federal, state and local government web resources and services.